sensor_id;sensor_type;location;lat;lon;timestamp;temperature;humidity
3860;DHT22;1945;52.036;8.614;2023-04-03T00:00:07;3.00;99.90
3860;DHT22;1945;52.036;8.614;2023-04-03T00:02:35;2.80;99.90
3860;DHT22;1945;52.036;8.614;2023-04-03T00:05:02;3.40;99.90
3860;DHT22;1945;52.036;8.614;2023-04-03T00:07:31;2.80;99.90
3860;DHT22;1945;52.036;8.614;2023-04-03T00:09:57;3.30;99.90
3860;DHT22;1945;52.036;8.614;2023-04-03T00:12:24;3.30;99.90
3860;DHT22;1945;52.036;8.614;2023-04-03T00:14:51;2.70;99.90
3860;DHT22;1945;52.036;8.614;2023-04-03T00:17:18;3.00;99.90
3860;DHT22;1945;52.036;8.614;2023-04-03T00:19:44;2.70;99.90
3860;DHT22;1945;52.036;8.614;2023-04-03T00:22:11;3.20;99.90
3860;DHT22;1945;52.036;8.614;2023-04-03T00:24:39;3.10;99.90
3860;DHT22;1945;52.036;8.614;2023-04-03T00:27:06;2.60;99.90
3860;DHT22;1945;52.036;8.614;2023-04-03T00:29:32;3.00;99.90
3860;DHT22;1945;52.036;8.614;2023-04-03T00:31:59;2.50;99.90
3860;DHT22;1945;52.036;8.614;2023-04-03T00:34:26;2.50;99.90
3860;DHT22;1945;52.036;8.614;2023-04-03T00:36:52;3.10;99.90
3860;DHT22;1945;52.036;8.614;2023-04-03T00:39:19;2.90;99.90
3860;DHT22;1945;52.036;8.614;2023-04-03T00:41:47;2.50;99.90
3860;DHT22;1945;52.036;8.614;2023-04-03T00:44:20;2.50;99.90
3860;DHT22;1945;52.036;8.614;2023-04-03T00:46:46;2.40;99.90
3860;DHT22;1945;52.036;8.614;2023-04-03T00:49:13;3.00;99.90
3860;DHT22;1945;52.036;8.614;2023-04-03T00:51:40;2.70;99.90
3860;DHT22;1945;52.036;8.614;2023-04-03T00:54:07;2.40;99.90
3860;DHT22;1945;52.036;8.614;2023-04-03T00:56:36;2.20;99.90
3860;DHT22;1945;52.036;8.614;2023-04-03T00:59:08;2.20;99.90
3860;DHT22;1945;52.036;8.614;2023-04-03T01:01:36;2.80;99.90
3860;DHT22;1945;52.036;8.614;2023-04-03T01:04:04;2.30;99.90
3860;DHT22;1945;52.036;8.614;2023-04-03T01:06:33;2.50;99.90
3860;DHT22;1945;52.036;8.614;2023-04-03T01:09:02;2.60;99.90
3860;DHT22;1945;52.036;8.614;2023-04-03T01:11:29;2.80;99.90
3860;DHT22;1945;52.036;8.614;2023-04-03T01:13:56;2.60;99.90
3860;DHT22;1945;52.036;8.614;2023-04-03T01:16:24;2.00;99.90
3860;DHT22;1945;52.036;8.614;2023-04-03T01:18:50;2.60;99.90
3860;DHT22;1945;52.036;8.614;2023-04-03T01:24:18;2.50;99.90
3860;DHT22;1945;52.036;8.614;2023-04-03T01:26:48;2.50;99.90
3860;DHT22;1945;52.036;8.614;2023-04-03T01:29:15;2.40;99.90
3860;DHT22;1945;52.036;8.614;2023-04-03T01:31:49;2.60;99.90
3860;DHT22;1945;52.036;8.614;2023-04-03T01:34:15;1.90;99.90
3860;DHT22;1945;52.036;8.614;2023-04-03T01:36:42;1.90;99.90
3860;DHT22;1945;52.036;8.614;2023-04-03T01:39:09;2.40;99.90
3860;DHT22;1945;52.036;8.614;2023-04-03T01:41:36;1.80;99.90
3860;DHT22;1945;52.036;8.614;2023-04-03T01:44:03;1.80;99.90
3860;DHT22;1945;52.036;8.614;2023-04-03T01:46:30;1.70;99.90
3860;DHT22;1945;52.036;8.614;2023-04-03T01:48:58;2.30;99.90
3860;DHT22;1945;52.036;8.614;2023-04-03T01:51:25;2.20;99.90
3860;DHT22;1945;52.036;8.614;2023-04-03T01:53:51;2.20;99.90
3860;DHT22;1945;52.036;8.614;2023-04-03T01:56:18;1.60;99.90
3860;DHT22;1945;52.036;8.614;2023-04-03T01:58:45;2.00;99.90
3860;DHT22;1945;52.036;8.614;2023-04-03T02:01:12;2.10;99.90
3860;DHT22;1945;52.036;8.614;2023-04-03T02:03:38;1.50;99.90
3860;DHT22;1945;52.036;8.614;2023-04-03T02:06:07;1.50;99.90
3860;DHT22;1945;52.036;8.614;2023-04-03T02:08:34;1.90;99.90
3860;DHT22;1945;52.036;8.614;2023-04-03T02:11:00;1.80;99.90
3860;DHT22;1945;52.036;8.614;2023-04-03T02:13:28;1.40;99.90
3860;DHT22;1945;52.036;8.614;2023-04-03T02:15:54;1.90;99.90
3860;DHT22;1945;52.036;8.614;2023-04-03T02:18:21;1.30;99.90
3860;DHT22;1945;52.036;8.614;2023-04-03T02:20:48;1.30;99.90
3860;DHT22;1945;52.036;8.614;2023-04-03T02:23:16;1.90;99.90
3860;DHT22;1945;52.036;8.614;2023-04-03T02:25:43;1.90;99.90
3860;DHT22;1945;52.036;8.614;2023-04-03T02:28:09;1.30;99.90
3860;DHT22;1945;52.036;8.614;2023-04-03T02:30:36;1.80;99.90
3860;DHT22;1945;52.036;8.614;2023-04-03T02:33:03;1.60;99.90
3860;DHT22;1945;52.036;8.614;2023-04-03T02:35:29;1.30;99.90
3860;DHT22;1945;52.036;8.614;2023-04-03T02:37:56;1.60;99.90
3860;DHT22;1945;52.036;8.614;2023-04-03T02:40:24;1.60;99.90
3860;DHT22;1945;52.036;8.614;2023-04-03T02:42:51;1.60;99.90
3860;DHT22;1945;52.036;8.614;2023-04-03T02:45:18;1.60;99.90
3860;DHT22;1945;52.036;8.614;2023-04-03T02:47:44;1.60;99.90
3860;DHT22;1945;52.036;8.614;2023-04-03T02:50:11;1.40;99.90
3860;DHT22;1945;52.036;8.614;2023-04-03T02:52:38;0.90;1.00
3860;DHT22;1945;52.036;8.614;2023-04-03T02:55:05;1.30;1.00
3860;DHT22;1945;52.036;8.614;2023-04-03T02:57:33;0.70;1.00
3860;DHT22;1945;52.036;8.614;2023-04-03T03:00:00;1.20;1.00
3860;DHT22;1945;52.036;8.614;2023-04-03T03:02:27;1.20;1.00
3860;DHT22;1945;52.036;8.614;2023-04-03T03:04:54;0.60;1.00
3860;DHT22;1945;52.036;8.614;2023-04-03T03:07:21;1.10;1.00
3860;DHT22;1945;52.036;8.614;2023-04-03T03:09:47;0.60;1.00
3860;DHT22;1945;52.036;8.614;2023-04-03T03:12:14;1.00;1.00
3860;DHT22;1945;52.036;8.614;2023-04-03T03:14:42;0.90;1.00
3860;DHT22;1945;52.036;8.614;2023-04-03T03:17:09;0.50;1.00
3860;DHT22;1945;52.036;8.614;2023-04-03T03:19:35;0.50;1.00
3860;DHT22;1945;52.036;8.614;2023-04-03T03:22:02;0.40;1.00
3860;DHT22;1945;52.036;8.614;2023-04-03T03:24:29;0.40;1.00
3860;DHT22;1945;52.036;8.614;2023-04-03T03:26:55;0.80;1.00
3860;DHT22;1945;52.036;8.614;2023-04-03T03:29:22;1.00;1.00
3860;DHT22;1945;52.036;8.614;2023-04-03T03:31:51;0.30;1.00
3860;DHT22;1945;52.036;8.614;2023-04-03T03:34:18;0.90;1.00
3860;DHT22;1945;52.036;8.614;2023-04-03T03:36:44;0.70;1.00
3860;DHT22;1945;52.036;8.614;2023-04-03T03:39:11;0.60;1.00
3860;DHT22;1945;52.036;8.614;2023-04-03T03:41:38;0.20;1.00
3860;DHT22;1945;52.036;8.614;2023-04-03T03:44:04;0.50;1.00
3860;DHT22;1945;52.036;8.614;2023-04-03T03:46:31;0.60;1.00
3860;DHT22;1945;52.036;8.614;2023-04-03T03:48:59;0.10;1.00
3860;DHT22;1945;52.036;8.614;2023-04-03T03:51:26;0.60;1.00
3860;DHT22;1945;52.036;8.614;2023-04-03T03:53:53;0.50;1.00
3860;DHT22;1945;52.036;8.614;2023-04-03T03:56:19;0.20;1.00
3860;DHT22;1945;52.036;8.614;2023-04-03T03:58:46;0.00;1.00
3860;DHT22;1945;52.036;8.614;2023-04-03T04:01:13;0.30;1.00
3860;DHT22;1945;52.036;8.614;2023-04-03T04:03:40;0.30;1.00
3860;DHT22;1945;52.036;8.614;2023-04-03T04:06:08;-0.20;1.00
3860;DHT22;1945;52.036;8.614;2023-04-03T04:08:36;0.30;1.00
3860;DHT22;1945;52.036;8.614;2023-04-03T04:11:03;0.30;1.00
3860;DHT22;1945;52.036;8.614;2023-04-03T04:13:29;0.30;1.00
3860;DHT22;1945;52.036;8.614;2023-04-03T04:15:56;-0.40;1.00
3860;DHT22;1945;52.036;8.614;2023-04-03T04:18:23;-0.20;1.00
3860;DHT22;1945;52.036;8.614;2023-04-03T04:20:49;-0.40;1.00
3860;DHT22;1945;52.036;8.614;2023-04-03T04:23:18;-0.10;1.00
3860;DHT22;1945;52.036;8.614;2023-04-03T04:25:45;0.00;1.00
3860;DHT22;1945;52.036;8.614;2023-04-03T04:28:12;0.10;1.00
3860;DHT22;1945;52.036;8.614;2023-04-03T04:30:38;-0.30;1.00
3860;DHT22;1945;52.036;8.614;2023-04-03T04:33:05;0.10;1.00
3860;DHT22;1945;52.036;8.614;2023-04-03T04:35:32;0.40;1.00
3860;DHT22;1945;52.036;8.614;2023-04-03T04:38:01;0.00;1.00
3860;DHT22;1945;52.036;8.614;2023-04-03T04:40:30;-0.40;1.00
3860;DHT22;1945;52.036;8.614;2023-04-03T04:42:56;0.10;1.00
3860;DHT22;1945;52.036;8.614;2023-04-03T04:45:23;0.00;1.00
3860;DHT22;1945;52.036;8.614;2023-04-03T04:47:50;0.10;1.00
3860;DHT22;1945;52.036;8.614;2023-04-03T04:50:18;0.10;1.00
3860;DHT22;1945;52.036;8.614;2023-04-03T04:52:45;0.00;1.00
3860;DHT22;1945;52.036;8.614;2023-04-03T04:55:11;0.00;1.00
3860;DHT22;1945;52.036;8.614;2023-04-03T04:57:39;0.00;1.00
3860;DHT22;1945;52.036;8.614;2023-04-03T05:00:07;-0.60;1.00
3860;DHT22;1945;52.036;8.614;2023-04-03T05:02:34;-0.80;1.00
3860;DHT22;1945;52.036;8.614;2023-04-03T05:05:00;0.20;1.00
3860;DHT22;1945;52.036;8.614;2023-04-03T05:07:27;0.10;1.00
3860;DHT22;1945;52.036;8.614;2023-04-03T05:09:54;0.10;1.00
3860;DHT22;1945;52.036;8.614;2023-04-03T05:12:20;-0.40;1.00
3860;DHT22;1945;52.036;8.614;2023-04-03T05:14:48;0.40;1.00
3860;DHT22;1945;52.036;8.614;2023-04-03T05:17:15;0.80;1.00
3860;DHT22;1945;52.036;8.614;2023-04-03T05:19:42;1.30;1.00
3860;DHT22;1945;52.036;8.614;2023-04-03T05:22:08;1.60;1.00
3860;DHT22;1945;52.036;8.614;2023-04-03T05:24:35;1.70;1.00
3860;DHT22;1945;52.036;8.614;2023-04-03T05:27:02;1.60;1.00
3860;DHT22;1945;52.036;8.614;2023-04-03T05:29:29;1.90;1.00
3860;DHT22;1945;52.036;8.614;2023-04-03T05:31:57;2.50;1.00
3860;DHT22;1945;52.036;8.614;2023-04-03T05:34:23;2.20;1.00
3860;DHT22;1945;52.036;8.614;2023-04-03T05:36:50;2.40;1.00
3860;DHT22;1945;52.036;8.614;2023-04-03T05:39:17;3.10;1.00
3860;DHT22;1945;52.036;8.614;2023-04-03T05:41:44;3.30;1.00
3860;DHT22;1945;52.036;8.614;2023-04-03T05:44:11;3.00;99.90
3860;DHT22;1945;52.036;8.614;2023-04-03T05:46:37;3.40;99.90
3860;DHT22;1945;52.036;8.614;2023-04-03T05:49:05;3.70;99.90
3860;DHT22;1945;52.036;8.614;2023-04-03T05:51:35;3.70;99.90
3860;DHT22;1945;52.036;8.614;2023-04-03T05:54:06;3.90;99.90
3860;DHT22;1945;52.036;8.614;2023-04-03T05:56:35;4.30;99.90
3860;DHT22;1945;52.036;8.614;2023-04-03T05:59:02;4.30;99.90
3860;DHT22;1945;52.036;8.614;2023-04-03T06:01:29;4.50;70.10
3860;DHT22;1945;52.036;8.614;2023-04-03T06:03:56;5.20;24.00
3860;DHT22;1945;52.036;8.614;2023-04-03T06:06:25;4.80;1.00
3860;DHT22;1945;52.036;8.614;2023-04-03T06:08:52;4.90;1.00
3860;DHT22;1945;52.036;8.614;2023-04-03T06:11:18;5.30;1.00
3860;DHT22;1945;52.036;8.614;2023-04-03T06:13:46;5.90;1.00
3860;DHT22;1945;52.036;8.614;2023-04-03T06:16:15;5.70;1.00
3860;DHT22;1945;52.036;8.614;2023-04-03T06:18:43;5.80;1.00
3860;DHT22;1945;52.036;8.614;2023-04-03T06:21:10;5.90;1.00
3860;DHT22;1945;52.036;8.614;2023-04-03T06:23:38;6.00;1.00
3860;DHT22;1945;52.036;8.614;2023-04-03T06:26:06;6.40;1.00
3860;DHT22;1945;52.036;8.614;2023-04-03T06:28:32;6.40;1.00
3860;DHT22;1945;52.036;8.614;2023-04-03T06:30:59;7.10;1.00
3860;DHT22;1945;52.036;8.614;2023-04-03T06:33:26;6.80;1.00
3860;DHT22;1945;52.036;8.614;2023-04-03T06:35:56;6.80;1.00
3860;DHT22;1945;52.036;8.614;2023-04-03T06:38:23;6.60;1.00
3860;DHT22;1945;52.036;8.614;2023-04-03T06:40:52;6.80;1.00
3860;DHT22;1945;52.036;8.614;2023-04-03T06:43:19;6.90;1.00
3860;DHT22;1945;52.036;8.614;2023-04-03T06:45:46;6.80;1.00
3860;DHT22;1945;52.036;8.614;2023-04-03T06:48:13;6.70;1.00
3860;DHT22;1945;52.036;8.614;2023-04-03T06:50:40;6.90;1.00
3860;DHT22;1945;52.036;8.614;2023-04-03T06:53:07;7.10;1.00
3860;DHT22;1945;52.036;8.614;2023-04-03T06:55:34;7.30;1.00
3860;DHT22;1945;52.036;8.614;2023-04-03T06:58:03;7.10;1.00
3860;DHT22;1945;52.036;8.614;2023-04-03T07:00:30;7.10;1.00
3860;DHT22;1945;52.036;8.614;2023-04-03T07:02:57;7.00;1.00
3860;DHT22;1945;52.036;8.614;2023-04-03T07:05:24;6.90;1.00
3860;DHT22;1945;52.036;8.614;2023-04-03T07:07:51;6.60;1.00
3860;DHT22;1945;52.036;8.614;2023-04-03T07:10:18;6.90;1.00
3860;DHT22;1945;52.036;8.614;2023-04-03T07:12:45;7.10;1.00
3860;DHT22;1945;52.036;8.614;2023-04-03T07:15:14;6.80;99.90
3860;DHT22;1945;52.036;8.614;2023-04-03T07:17:40;6.90;1.00
3860;DHT22;1945;52.036;8.614;2023-04-03T07:20:08;7.30;1.00
3860;DHT22;1945;52.036;8.614;2023-04-03T07:22:36;7.30;99.90
3860;DHT22;1945;52.036;8.614;2023-04-03T07:25:03;7.40;99.90
3860;DHT22;1945;52.036;8.614;2023-04-03T07:27:32;7.30;1.00
3860;DHT22;1945;52.036;8.614;2023-04-03T07:29:59;7.20;1.00
3860;DHT22;1945;52.036;8.614;2023-04-03T07:32:28;7.00;1.00
3860;DHT22;1945;52.036;8.614;2023-04-03T07:34:55;7.10;1.00
3860;DHT22;1945;52.036;8.614;2023-04-03T07:37:21;6.80;1.00
3860;DHT22;1945;52.036;8.614;2023-04-03T07:39:48;6.50;99.90
3860;DHT22;1945;52.036;8.614;2023-04-03T07:42:15;6.70;99.90
3860;DHT22;1945;52.036;8.614;2023-04-03T07:44:41;7.80;1.00
3860;DHT22;1945;52.036;8.614;2023-04-03T07:47:08;6.80;99.90
3860;DHT22;1945;52.036;8.614;2023-04-03T07:49:36;7.10;99.90
3860;DHT22;1945;52.036;8.614;2023-04-03T07:52:05;7.30;99.90
3860;DHT22;1945;52.036;8.614;2023-04-03T07:54:34;6.80;99.90
3860;DHT22;1945;52.036;8.614;2023-04-03T07:57:01;7.60;99.90
3860;DHT22;1945;52.036;8.614;2023-04-03T07:59:27;7.10;99.90
3860;DHT22;1945;52.036;8.614;2023-04-03T08:01:54;6.80;99.90
3860;DHT22;1945;52.036;8.614;2023-04-03T08:04:22;7.50;1.00
3860;DHT22;1945;52.036;8.614;2023-04-03T08:06:50;7.00;99.90
3860;DHT22;1945;52.036;8.614;2023-04-03T08:09:17;7.10;1.00
3860;DHT22;1945;52.036;8.614;2023-04-03T08:11:44;7.10;1.00
3860;DHT22;1945;52.036;8.614;2023-04-03T08:14:12;7.00;99.90
3860;DHT22;1945;52.036;8.614;2023-04-03T08:16:42;7.00;1.00
3860;DHT22;1945;52.036;8.614;2023-04-03T08:19:09;6.50;99.90
3860;DHT22;1945;52.036;8.614;2023-04-03T08:21:36;6.50;1.00
3860;DHT22;1945;52.036;8.614;2023-04-03T08:24:04;6.30;99.90
3860;DHT22;1945;52.036;8.614;2023-04-03T08:26:31;5.90;99.90
3860;DHT22;1945;52.036;8.614;2023-04-03T08:28:58;5.90;99.90
3860;DHT22;1945;52.036;8.614;2023-04-03T08:31:25;6.40;99.90
3860;DHT22;1945;52.036;8.614;2023-04-03T08:33:52;5.80;1.00
3860;DHT22;1945;52.036;8.614;2023-04-03T08:36:20;6.00;99.90
3860;DHT22;1945;52.036;8.614;2023-04-03T08:38:48;6.10;1.00
3860;DHT22;1945;52.036;8.614;2023-04-03T08:41:20;6.40;1.00
3860;DHT22;1945;52.036;8.614;2023-04-03T08:44:14;5.70;1.00
3860;DHT22;1945;52.036;8.614;2023-04-03T08:47:02;5.90;1.00
3860;DHT22;1945;52.036;8.614;2023-04-03T08:49:33;6.10;1.00
3860;DHT22;1945;52.036;8.614;2023-04-03T08:52:04;6.00;1.00
3860;DHT22;1945;52.036;8.614;2023-04-03T08:54:33;5.90;1.00
3860;DHT22;1945;52.036;8.614;2023-04-03T08:57:04;6.60;1.00
3860;DHT22;1945;52.036;8.614;2023-04-03T08:59:34;5.80;1.00
3860;DHT22;1945;52.036;8.614;2023-04-03T09:02:04;5.50;1.00
3860;DHT22;1945;52.036;8.614;2023-04-03T09:04:32;5.50;1.00
3860;DHT22;1945;52.036;8.614;2023-04-03T09:07:05;5.60;1.00
3860;DHT22;1945;52.036;8.614;2023-04-03T09:09:36;6.30;99.90
3860;DHT22;1945;52.036;8.614;2023-04-03T09:12:15;5.60;1.00
3860;DHT22;1945;52.036;8.614;2023-04-03T09:14:49;5.90;1.00
3860;DHT22;1945;52.036;8.614;2023-04-03T09:17:29;5.80;99.90
3860;DHT22;1945;52.036;8.614;2023-04-03T09:20:04;5.80;1.00
3860;DHT22;1945;52.036;8.614;2023-04-03T09:22:38;5.70;1.00
3860;DHT22;1945;52.036;8.614;2023-04-03T09:25:12;6.70;1.00
3860;DHT22;1945;52.036;8.614;2023-04-03T09:27:41;6.50;1.00
3860;DHT22;1945;52.036;8.614;2023-04-03T09:30:13;6.00;1.00
3860;DHT22;1945;52.036;8.614;2023-04-03T09:32:40;5.70;1.00
3860;DHT22;1945;52.036;8.614;2023-04-03T09:35:17;5.80;1.00
3860;DHT22;1945;52.036;8.614;2023-04-03T09:37:46;5.90;1.00
3860;DHT22;1945;52.036;8.614;2023-04-03T09:40:37;6.10;1.00
3860;DHT22;1945;52.036;8.614;2023-04-03T09:43:29;5.70;1.00
3860;DHT22;1945;52.036;8.614;2023-04-03T09:46:16;6.10;1.00
3860;DHT22;1945;52.036;8.614;2023-04-03T09:48:51;5.90;1.00
3860;DHT22;1945;52.036;8.614;2023-04-03T09:51:17;6.40;1.00
3860;DHT22;1945;52.036;8.614;2023-04-03T09:53:45;6.60;1.00
3860;DHT22;1945;52.036;8.614;2023-04-03T09:56:23;6.40;1.00
3860;DHT22;1945;52.036;8.614;2023-04-03T09:59:06;6.50;1.00
3860;DHT22;1945;52.036;8.614;2023-04-03T10:01:35;7.00;1.00
3860;DHT22;1945;52.036;8.614;2023-04-03T10:04:05;7.30;1.00
3860;DHT22;1945;52.036;8.614;2023-04-03T10:06:33;7.00;1.00
3860;DHT22;1945;52.036;8.614;2023-04-03T10:09:04;6.60;1.00
3860;DHT22;1945;52.036;8.614;2023-04-03T10:11:31;6.10;1.00
3860;DHT22;1945;52.036;8.614;2023-04-03T10:14:02;6.40;1.00
3860;DHT22;1945;52.036;8.614;2023-04-03T10:16:35;6.30;1.00
3860;DHT22;1945;52.036;8.614;2023-04-03T10:19:34;6.50;1.00
3860;DHT22;1945;52.036;8.614;2023-04-03T10:22:09;6.00;1.00
3860;DHT22;1945;52.036;8.614;2023-04-03T10:24:47;5.70;1.00
3860;DHT22;1945;52.036;8.614;2023-04-03T10:27:17;6.10;1.00
3860;DHT22;1945;52.036;8.614;2023-04-03T10:29:51;6.70;1.00
3860;DHT22;1945;52.036;8.614;2023-04-03T10:32:54;6.50;1.00
3860;DHT22;1945;52.036;8.614;2023-04-03T10:35:34;6.70;99.90
3860;DHT22;1945;52.036;8.614;2023-04-03T10:38:09;6.00;99.90
3860;DHT22;1945;52.036;8.614;2023-04-03T10:40:47;6.20;99.90
3860;DHT22;1945;52.036;8.614;2023-04-03T10:43:21;6.40;99.90
3860;DHT22;1945;52.036;8.614;2023-04-03T10:45:57;6.20;99.90
3860;DHT22;1945;52.036;8.614;2023-04-03T10:48:40;6.80;99.90
3860;DHT22;1945;52.036;8.614;2023-04-03T10:51:19;7.10;99.90
3860;DHT22;1945;52.036;8.614;2023-04-03T10:53:53;7.40;99.90
3860;DHT22;1945;52.036;8.614;2023-04-03T10:56:30;7.20;99.90
3860;DHT22;1945;52.036;8.614;2023-04-03T10:59:02;7.20;1.00
3860;DHT22;1945;52.036;8.614;2023-04-03T11:01:38;7.10;99.90
3860;DHT22;1945;52.036;8.614;2023-04-03T11:04:07;7.00;99.90
3860;DHT22;1945;52.036;8.614;2023-04-03T11:06:39;6.60;99.90
3860;DHT22;1945;52.036;8.614;2023-04-03T11:09:15;7.20;99.90
3860;DHT22;1945;52.036;8.614;2023-04-03T11:11:43;6.60;99.90
3860;DHT22;1945;52.036;8.614;2023-04-03T11:14:14;6.70;99.90
3860;DHT22;1945;52.036;8.614;2023-04-03T11:16:48;6.30;99.90
3860;DHT22;1945;52.036;8.614;2023-04-03T11:19:20;6.30;99.90
3860;DHT22;1945;52.036;8.614;2023-04-03T11:21:54;7.00;99.90
3860;DHT22;1945;52.036;8.614;2023-04-03T11:24:25;6.40;1.00
3860;DHT22;1945;52.036;8.614;2023-04-03T11:26:54;6.80;99.90
3860;DHT22;1945;52.036;8.614;2023-04-03T11:29:24;6.10;99.90
3860;DHT22;1945;52.036;8.614;2023-04-03T11:32:05;6.20;99.90
3860;DHT22;1945;52.036;8.614;2023-04-03T11:34:36;6.10;99.90
3860;DHT22;1945;52.036;8.614;2023-04-03T11:37:12;6.20;99.90
3860;DHT22;1945;52.036;8.614;2023-04-03T11:39:47;6.20;99.90
3860;DHT22;1945;52.036;8.614;2023-04-03T11:42:22;5.70;99.90
3860;DHT22;1945;52.036;8.614;2023-04-03T11:44:51;6.40;99.90
3860;DHT22;1945;52.036;8.614;2023-04-03T11:47:47;6.30;99.90
3860;DHT22;1945;52.036;8.614;2023-04-03T11:50:39;6.50;99.90
3860;DHT22;1945;52.036;8.614;2023-04-03T11:53:29;6.90;99.90
3860;DHT22;1945;52.036;8.614;2023-04-03T11:56:01;7.40;99.90
3860;DHT22;1945;52.036;8.614;2023-04-03T11:58:30;7.80;99.90
3860;DHT22;1945;52.036;8.614;2023-04-03T12:01:08;7.80;99.90
3860;DHT22;1945;52.036;8.614;2023-04-03T12:12:30;6.80;99.90
3860;DHT22;1945;52.036;8.614;2023-04-03T12:15:19;6.60;99.90
3860;DHT22;1945;52.036;8.614;2023-04-03T12:17:47;6.90;99.90
3860;DHT22;1945;52.036;8.614;2023-04-03T12:23:27;7.50;99.90
3860;DHT22;1945;52.036;8.614;2023-04-03T12:26:10;7.80;99.90
3860;DHT22;1945;52.036;8.614;2023-04-03T12:28:48;7.40;99.90
3860;DHT22;1945;52.036;8.614;2023-04-03T12:31:16;7.30;99.90
3860;DHT22;1945;52.036;8.614;2023-04-03T12:34:04;7.20;99.90
3860;DHT22;1945;52.036;8.614;2023-04-03T12:36:45;7.10;99.90
3860;DHT22;1945;52.036;8.614;2023-04-03T12:39:34;7.40;86.80
3860;DHT22;1945;52.036;8.614;2023-04-03T12:42:16;7.60;99.90
3860;DHT22;1945;52.036;8.614;2023-04-03T12:44:52;7.30;99.90
3860;DHT22;1945;52.036;8.614;2023-04-03T12:47:28;7.70;1.00
3860;DHT22;1945;52.036;8.614;2023-04-03T12:49:56;7.50;1.00
3860;DHT22;1945;52.036;8.614;2023-04-03T12:52:32;7.30;1.00
3860;DHT22;1945;52.036;8.614;2023-04-03T12:55:01;7.70;1.00
3860;DHT22;1945;52.036;8.614;2023-04-03T12:57:29;7.20;1.00
3860;DHT22;1945;52.036;8.614;2023-04-03T12:59:58;8.10;16.70
3860;DHT22;1945;52.036;8.614;2023-04-03T13:02:29;7.80;1.00
3860;DHT22;1945;52.036;8.614;2023-04-03T13:04:58;7.70;41.80
3860;DHT22;1945;52.036;8.614;2023-04-03T13:07:28;8.00;90.20
3860;DHT22;1945;52.036;8.614;2023-04-03T13:09:59;7.30;1.00
3860;DHT22;1945;52.036;8.614;2023-04-03T13:12:27;7.20;1.00
3860;DHT22;1945;52.036;8.614;2023-04-03T13:14:56;7.10;1.00
3860;DHT22;1945;52.036;8.614;2023-04-03T13:17:25;7.60;1.00
3860;DHT22;1945;52.036;8.614;2023-04-03T13:19:53;7.00;15.30
3860;DHT22;1945;52.036;8.614;2023-04-03T13:22:27;6.80;1.00
3860;DHT22;1945;52.036;8.614;2023-04-03T13:24:58;6.50;1.00
3860;DHT22;1945;52.036;8.614;2023-04-03T13:27:27;7.40;1.00
3860;DHT22;1945;52.036;8.614;2023-04-03T13:29:58;7.00;1.00
3860;DHT22;1945;52.036;8.614;2023-04-03T13:32:28;7.20;1.00
3860;DHT22;1945;52.036;8.614;2023-04-03T13:34:56;7.40;1.00
3860;DHT22;1945;52.036;8.614;2023-04-03T13:37:24;7.40;1.00
3860;DHT22;1945;52.036;8.614;2023-04-03T13:40:00;7.60;13.00
3860;DHT22;1945;52.036;8.614;2023-04-03T13:42:30;7.30;82.80
3860;DHT22;1945;52.036;8.614;2023-04-03T13:45:17;7.50;1.00
3860;DHT22;1945;52.036;8.614;2023-04-03T13:47:46;7.30;1.00
3860;DHT22;1945;52.036;8.614;2023-04-03T13:50:16;7.80;1.00
3860;DHT22;1945;52.036;8.614;2023-04-03T13:52:46;7.40;1.00
3860;DHT22;1945;52.036;8.614;2023-04-03T13:55:21;7.60;19.70
3860;DHT22;1945;52.036;8.614;2023-04-03T13:57:52;7.70;1.00
3860;DHT22;1945;52.036;8.614;2023-04-03T14:00:27;7.80;1.00
3860;DHT22;1945;52.036;8.614;2023-04-03T14:02:55;7.80;1.00
3860;DHT22;1945;52.036;8.614;2023-04-03T14:05:23;7.80;1.00
3860;DHT22;1945;52.036;8.614;2023-04-03T14:07:52;7.70;1.00
3860;DHT22;1945;52.036;8.614;2023-04-03T14:10:20;7.80;1.00
3860;DHT22;1945;52.036;8.614;2023-04-03T14:12:47;7.70;1.00
3860;DHT22;1945;52.036;8.614;2023-04-03T14:15:20;7.60;1.00
3860;DHT22;1945;52.036;8.614;2023-04-03T14:17:49;7.60;1.00
3860;DHT22;1945;52.036;8.614;2023-04-03T14:20:18;7.80;1.00
3860;DHT22;1945;52.036;8.614;2023-04-03T14:22:46;7.90;1.00
3860;DHT22;1945;52.036;8.614;2023-04-03T14:25:14;8.50;1.00
3860;DHT22;1945;52.036;8.614;2023-04-03T14:27:43;7.70;1.00
3860;DHT22;1945;52.036;8.614;2023-04-03T14:30:14;7.50;1.00
3860;DHT22;1945;52.036;8.614;2023-04-03T14:32:43;7.40;1.00
3860;DHT22;1945;52.036;8.614;2023-04-03T14:35:10;7.70;1.00
3860;DHT22;1945;52.036;8.614;2023-04-03T14:37:37;7.60;1.00
3860;DHT22;1945;52.036;8.614;2023-04-03T14:40:05;8.10;1.00
3860;DHT22;1945;52.036;8.614;2023-04-03T14:42:34;7.50;1.00
3860;DHT22;1945;52.036;8.614;2023-04-03T14:45:04;7.50;1.00
3860;DHT22;1945;52.036;8.614;2023-04-03T14:47:32;7.50;1.00
3860;DHT22;1945;52.036;8.614;2023-04-03T14:50:02;7.60;1.00
3860;DHT22;1945;52.036;8.614;2023-04-03T14:52:32;7.70;1.00
3860;DHT22;1945;52.036;8.614;2023-04-03T14:55:00;7.70;1.00
3860;DHT22;1945;52.036;8.614;2023-04-03T14:57:28;7.60;1.00
3860;DHT22;1945;52.036;8.614;2023-04-03T14:59:56;7.60;1.00
3860;DHT22;1945;52.036;8.614;2023-04-03T15:02:26;8.20;1.00
3860;DHT22;1945;52.036;8.614;2023-04-03T15:04:53;7.70;1.00
3860;DHT22;1945;52.036;8.614;2023-04-03T15:07:22;8.20;1.00
3860;DHT22;1945;52.036;8.614;2023-04-03T15:09:50;8.30;1.00
3860;DHT22;1945;52.036;8.614;2023-04-03T15:12:17;8.20;1.00
3860;DHT22;1945;52.036;8.614;2023-04-03T15:14:44;7.70;1.00
3860;DHT22;1945;52.036;8.614;2023-04-03T15:17:14;7.70;1.00
3860;DHT22;1945;52.036;8.614;2023-04-03T15:19:42;7.70;1.00
3860;DHT22;1945;52.036;8.614;2023-04-03T15:22:13;7.70;1.00
3860;DHT22;1945;52.036;8.614;2023-04-03T15:24:42;7.60;1.00
3860;DHT22;1945;52.036;8.614;2023-04-03T15:27:09;7.60;1.00
3860;DHT22;1945;52.036;8.614;2023-04-03T15:29:36;7.80;1.00
3860;DHT22;1945;52.036;8.614;2023-04-03T15:32:03;7.80;1.00
3860;DHT22;1945;52.036;8.614;2023-04-03T15:34:30;7.40;1.00
3860;DHT22;1945;52.036;8.614;2023-04-03T15:36:57;7.60;1.00
3860;DHT22;1945;52.036;8.614;2023-04-03T15:39:24;7.80;1.00
3860;DHT22;1945;52.036;8.614;2023-04-03T15:41:53;7.80;1.00
3860;DHT22;1945;52.036;8.614;2023-04-03T15:44:22;7.60;1.00
3860;DHT22;1945;52.036;8.614;2023-04-03T15:46:49;7.60;1.00
3860;DHT22;1945;52.036;8.614;2023-04-03T15:49:16;7.40;1.00
3860;DHT22;1945;52.036;8.614;2023-04-03T15:51:43;7.80;1.00
3860;DHT22;1945;52.036;8.614;2023-04-03T15:54:10;7.20;1.00
3860;DHT22;1945;52.036;8.614;2023-04-03T15:56:37;7.10;1.00
3860;DHT22;1945;52.036;8.614;2023-04-03T15:59:05;7.10;1.00
3860;DHT22;1945;52.036;8.614;2023-04-03T16:01:32;7.00;1.00
3860;DHT22;1945;52.036;8.614;2023-04-03T16:03:58;6.90;1.00
3860;DHT22;1945;52.036;8.614;2023-04-03T16:06:28;7.10;1.00
3860;DHT22;1945;52.036;8.614;2023-04-03T16:08:56;6.90;1.00
3860;DHT22;1945;52.036;8.614;2023-04-03T16:11:24;7.20;1.00
3860;DHT22;1945;52.036;8.614;2023-04-03T16:13:51;7.20;1.00
3860;DHT22;1945;52.036;8.614;2023-04-03T16:16:19;7.30;1.00
3860;DHT22;1945;52.036;8.614;2023-04-03T16:18:47;7.40;1.00
3860;DHT22;1945;52.036;8.614;2023-04-03T16:21:15;7.50;1.00
3860;DHT22;1945;52.036;8.614;2023-04-03T16:23:43;7.50;1.00
3860;DHT22;1945;52.036;8.614;2023-04-03T16:26:10;7.60;1.00
3860;DHT22;1945;52.036;8.614;2023-04-03T16:28:37;7.90;1.00
3860;DHT22;1945;52.036;8.614;2023-04-03T16:31:05;7.40;1.00
3860;DHT22;1945;52.036;8.614;2023-04-03T16:33:34;7.30;1.00
3860;DHT22;1945;52.036;8.614;2023-04-03T16:36:02;7.70;1.00
3860;DHT22;1945;52.036;8.614;2023-04-03T16:38:29;7.10;1.00
3860;DHT22;1945;52.036;8.614;2023-04-03T16:40:56;7.00;1.00
3860;DHT22;1945;52.036;8.614;2023-04-03T16:43:24;6.90;1.00
3860;DHT22;1945;52.036;8.614;2023-04-03T16:45:51;6.90;1.00
3860;DHT22;1945;52.036;8.614;2023-04-03T16:48:18;6.80;1.00
3860;DHT22;1945;52.036;8.614;2023-04-03T16:50:48;6.80;1.00
3860;DHT22;1945;52.036;8.614;2023-04-03T16:53:17;6.80;1.00
3860;DHT22;1945;52.036;8.614;2023-04-03T16:55:44;6.90;1.00